sensor_id;sensor_type;location;lat;lon;timestamp;pressure;altitude;pressure_sealevel;temperature;humidity
81005;BME280;70472;47.592;17.640;2023-12-22T00:00:26;97631.28;;;5.95;99.50
81005;BME280;70472;47.592;17.640;2023-12-22T00:00:58;97636.63;;;5.95;99.13
81005;BME280;70472;47.592;17.640;2023-12-22T00:01:33;97643.94;;;5.93;99.12
81005;BME280;70472;47.592;17.640;2023-12-22T00:02:06;97642.53;;;5.97;99.59
81005;BME280;70472;47.592;17.640;2023-12-22T00:02:38;97644.19;;;5.98;100.00
81005;BME280;70472;47.592;17.640;2023-12-22T00:03:10;97646.03;;;5.97;99.89
81005;BME280;70472;47.592;17.640;2023-12-22T00:03:43;97655.66;;;5.98;99.94
81005;BME280;70472;47.592;17.640;2023-12-22T00:04:15;97657.09;;;6.01;99.88
81005;BME280;70472;47.592;17.640;2023-12-22T00:04:48;97648.09;;;6.02;99.54
81005;BME280;70472;47.592;17.640;2023-12-22T00:05:20;97661.41;;;6.02;99.94
81005;BME280;70472;47.592;17.640;2023-12-22T00:05:53;97656.09;;;6.02;99.83
81005;BME280;70472;47.592;17.640;2023-12-22T00:06:25;97654.84;;;6.04;100.00
81005;BME280;70472;47.592;17.640;2023-12-22T00:06:57;97652.41;;;6.03;100.00
81005;BME280;70472;47.592;17.640;2023-12-22T00:07:30;97657.34;;;6.06;100.00
81005;BME280;70472;47.592;17.640;2023-12-22T00:08:02;97658.97;;;6.07;100.00
81005;BME280;70472;47.592;17.640;2023-12-22T00:08:35;97662.66;;;6.06;100.00
81005;BME280;70472;47.592;17.640;2023-12-22T00:09:07;97660.16;;;6.04;100.00
81005;BME280;70472;47.592;17.640;2023-12-22T00:09:41;97673.09;;;6.07;100.00
81005;BME280;70472;47.592;17.640;2023-12-22T00:10:13;97675.56;;;6.09;100.00
81005;BME280;70472;47.592;17.640;2023-12-22T00:10:45;97671.88;;;6.10;100.00
81005;BME280;70472;47.592;17.640;2023-12-22T00:11:18;97670.22;;;6.09;100.00
81005;BME280;70472;47.592;17.640;2023-12-22T00:11:50;97670.66;;;6.06;100.00
81005;BME280;70472;47.592;17.640;2023-12-22T00:12:22;97670.66;;;6.06;100.00
81005;BME280;70472;47.592;17.640;2023-12-22T00:12:55;97665.69;;;6.03;100.00
81005;BME280;70472;47.592;17.640;2023-12-22T00:13:27;97670.44;;;6.07;100.00
81005;BME280;70472;47.592;17.640;2023-12-22T00:13:59;97670.22;;;6.09;100.00
81005;BME280;70472;47.592;17.640;2023-12-22T00:14:32;97666.13;;;6.00;100.00
81005;BME280;70472;47.592;17.640;2023-12-22T00:15:05;97668.38;;;6.03;100.00
81005;BME280;70472;47.592;17.640;2023-12-22T00:15:38;97672.06;;;6.02;100.00
81005;BME280;70472;47.592;17.640;2023-12-22T00:16:10;97665.47;;;5.98;100.00
81005;BME280;70472;47.592;17.640;2023-12-22T00:16:43;97666.13;;;6.00;100.00
81005;BME280;70472;47.592;17.640;2023-12-22T00:17:15;97655.25;;;6.01;100.00
81005;BME280;70472;47.592;17.640;2023-12-22T00:17:47;97651.56;;;5.96;100.00
81005;BME280;70472;47.592;17.640;2023-12-22T00:18:20;97646.66;;;5.99;100.00
81005;BME280;70472;47.592;17.640;2023-12-22T00:18:52;97641.13;;;6.01;100.00
81005;BME280;70472;47.592;17.640;2023-12-22T00:19:24;97642.78;;;6.02;100.00
81005;BME280;70472;47.592;17.640;2023-12-22T00:19:57;97641.75;;;6.03;100.00
81005;BME280;70472;47.592;17.640;2023-12-22T00:20:29;97636.03;;;6.06;100.00
81005;BME280;70472;47.592;17.640;2023-12-22T00:21:02;97637.25;;;6.03;100.00
81005;BME280;70472;47.592;17.640;2023-12-22T00:21:34;97635.22;;;6.05;100.00
81005;BME280;70472;47.592;17.640;2023-12-22T00:22:06;97645.66;;;6.07;100.00
81005;BME280;70472;47.592;17.640;2023-12-22T00:22:39;97652.84;;;6.06;100.00
81005;BME280;70472;47.592;17.640;2023-12-22T00:23:11;97658.97;;;6.07;100.00
81005;BME280;70472;47.592;17.640;2023-12-22T00:23:44;97665.94;;;6.08;100.00
81005;BME280;70472;47.592;17.640;2023-12-22T00:24:16;97666.53;;;6.10;100.00
81005;BME280;70472;47.592;17.640;2023-12-22T00:24:48;97667.56;;;6.09;100.00
81005;BME280;70472;47.592;17.640;2023-12-22T00:25:21;97678.63;;;6.06;100.00
81005;BME280;70472;47.592;17.640;2023-12-22T00:25:53;97676.59;;;6.08;100.00
81005;BME280;70472;47.592;17.640;2023-12-22T00:26:25;97674.53;;;6.10;100.00
81005;BME280;70472;47.592;17.640;2023-12-22T00:26:58;97676.81;;;6.13;100.00
81005;BME280;70472;47.592;17.640;2023-12-22T00:27:30;97665.34;;;6.12;100.00
81005;BME280;70472;47.592;17.640;2023-12-22T00:28:03;97660.22;;;6.11;100.00
81005;BME280;70472;47.592;17.640;2023-12-22T00:28:35;97652.84;;;6.13;100.00
81005;BME280;70472;47.592;17.640;2023-12-22T00:29:08;97652.84;;;6.06;100.00
81005;BME280;70472;47.592;17.640;2023-12-22T00:29:40;97651.38;;;6.04;100.00
81005;BME280;70472;47.592;17.640;2023-12-22T00:30:13;97650.38;;;6.05;100.00
81005;BME280;70472;47.592;17.640;2023-12-22T00:30:45;97639.53;;;6.06;99.85
81005;BME280;70472;47.592;17.640;2023-12-22T00:31:18;97638.84;;;5.98;99.74
81005;BME280;70472;47.592;17.640;2023-12-22T00:31:50;97638.84;;;5.98;100.00
81005;BME280;70472;47.592;17.640;2023-12-22T00:32:22;97638.84;;;5.98;99.98
81005;BME280;70472;47.592;17.640;2023-12-22T00:32:55;97632.94;;;5.96;99.64
81005;BME280;70472;47.592;17.640;2023-12-22T00:33:27;97627.41;;;5.97;99.77
81005;BME280;70472;47.592;17.640;2023-12-22T00:33:59;97628.63;;;5.95;99.68
81005;BME280;70472;47.592;17.640;2023-12-22T00:34:32;97636.81;;;5.93;99.86
81005;BME280;70472;47.592;17.640;2023-12-22T00:35:06;97632.31;;;5.94;100.00
81005;BME280;70472;47.592;17.640;2023-12-22T00:35:39;97634.50;;;5.90;99.97
81005;BME280;70472;47.592;17.640;2023-12-22T00:36:11;97633.69;;;5.89;99.66
81005;BME280;70472;47.592;17.640;2023-12-22T00:36:44;97637.44;;;5.95;99.57
81005;BME280;70472;47.592;17.640;2023-12-22T00:37:16;97640.91;;;5.96;99.58
81005;BME280;70472;47.592;17.640;2023-12-22T00:37:48;97639.69;;;5.98;99.52
81005;BME280;70472;47.592;17.640;2023-12-22T00:38:21;97647.88;;;5.97;99.81
81005;BME280;70472;47.592;17.640;2023-12-22T00:38:54;97637.63;;;5.94;100.00
81005;BME280;70472;47.592;17.640;2023-12-22T00:39:27;97642.53;;;5.97;100.00
81005;BME280;70472;47.592;17.640;2023-12-22T00:39:59;97642.53;;;5.97;100.00
81005;BME280;70472;47.592;17.640;2023-12-22T00:40:31;97642.53;;;5.97;100.00
81005;BME280;70472;47.592;17.640;2023-12-22T00:41:06;97655.25;;;6.01;99.84
81005;BME280;70472;47.592;17.640;2023-12-22T00:41:38;97654.81;;;5.98;100.00
81005;BME280;70472;47.592;17.640;2023-12-22T00:42:10;97664.44;;;5.99;99.75
81005;BME280;70472;47.592;17.640;2023-12-22T00:42:43;97664.28;;;6.00;100.00
81005;BME280;70472;47.592;17.640;2023-12-22T00:43:15;97666.72;;;6.02;100.00
81005;BME280;70472;47.592;17.640;2023-12-22T00:43:47;97674.28;;;5.98;100.00
81005;BME280;70472;47.592;17.640;2023-12-22T00:44:20;97672.63;;;5.97;99.76
81005;BME280;70472;47.592;17.640;2023-12-22T00:44:52;97677.56;;;6.00;99.50
81005;BME280;70472;47.592;17.640;2023-12-22T00:45:24;97681.66;;;6.03;100.00
81005;BME280;70472;47.592;17.640;2023-12-22T00:45:57;97682.69;;;6.02;99.67
81005;BME280;70472;47.592;17.640;2023-12-22T00:46:29;97673.44;;;5.98;99.37
81005;BME280;70472;47.592;17.640;2023-12-22T00:47:01;97672.66;;;6.04;99.29
81005;BME280;70472;47.592;17.640;2023-12-22T00:47:34;97669.63;;;6.07;99.63
81005;BME280;70472;47.592;17.640;2023-12-22T00:48:06;97678.19;;;6.02;99.32
81005;BME280;70472;47.592;17.640;2023-12-22T00:48:38;97682.09;;;6.00;99.78
81005;BME280;70472;47.592;17.640;2023-12-22T00:49:11;97679.81;;;6.03;99.58
81005;BME280;70472;47.592;17.640;2023-12-22T00:49:43;97670.00;;;6.04;98.87
81005;BME280;70472;47.592;17.640;2023-12-22T00:50:16;97673.31;;;6.06;99.66
81005;BME280;70472;47.592;17.640;2023-12-22T00:50:48;97668.38;;;6.03;99.21
81005;BME280;70472;47.592;17.640;2023-12-22T00:51:20;97680.47;;;6.05;98.98
81005;BME280;70472;47.592;17.640;2023-12-22T00:51:52;97672.28;;;6.07;99.49
81005;BME280;70472;47.592;17.640;2023-12-22T00:52:25;97680.47;;;6.05;99.29
81005;BME280;70472;47.592;17.640;2023-12-22T00:52:57;97685.16;;;6.03;98.93
81005;BME280;70472;47.592;17.640;2023-12-22T00:53:29;97685.34;;;6.02;98.50
81005;BME280;70472;47.592;17.640;2023-12-22T00:54:02;97684.97;;;6.05;98.70
81005;BME280;70472;47.592;17.640;2023-12-22T00:54:34;97687.16;;;5.95;98.92
81005;BME280;70472;47.592;17.640;2023-12-22T00:55:07;97678.97;;;5.96;99.80
81005;BME280;70472;47.592;17.640;2023-12-22T00:55:39;97676.56;;;6.01;99.36
81005;BME280;70472;47.592;17.640;2023-12-22T00:56:11;97663.84;;;5.97;100.00
81005;BME280;70472;47.592;17.640;2023-12-22T00:56:44;97658.13;;;6.00;99.52
81005;BME280;70472;47.592;17.640;2023-12-22T00:57:16;97659.34;;;6.04;99.93
81005;BME280;70472;47.592;17.640;2023-12-22T00:57:48;97661.44;;;6.08;100.00
81005;BME280;70472;47.592;17.640;2023-12-22T00:58:21;97662.25;;;6.09;99.84
81005;BME280;70472;47.592;17.640;2023-12-22T00:58:53;97665.94;;;6.08;99.27
81005;BME280;70472;47.592;17.640;2023-12-22T00:59:26;97662.00;;;6.04;98.83
81005;BME280;70472;47.592;17.640;2023-12-22T00:59:58;97667.34;;;6.04;99.11
81005;BME280;70472;47.592;17.640;2023-12-22T01:00:30;97666.53;;;6.03;99.68
81005;BME280;70472;47.592;17.640;2023-12-22T01:01:03;97667.97;;;6.06;99.15
81005;BME280;70472;47.592;17.640;2023-12-22T01:01:35;97668.38;;;6.09;99.73
81005;BME280;70472;47.592;17.640;2023-12-22T01:02:07;97670.22;;;6.09;99.14
81005;BME280;70472;47.592;17.640;2023-12-22T01:02:40;97667.16;;;6.05;99.58
81005;BME280;70472;47.592;17.640;2023-12-22T01:03:12;97659.78;;;6.07;99.03
81005;BME280;70472;47.592;17.640;2023-12-22T01:03:44;97667.16;;;6.05;99.68
81005;BME280;70472;47.592;17.640;2023-12-22T01:04:17;97676.13;;;6.04;98.91
81005;BME280;70472;47.592;17.640;2023-12-22T01:04:49;97671.44;;;6.00;99.74
81005;BME280;70472;47.592;17.640;2023-12-22T01:05:21;97671.19;;;5.95;99.11
81005;BME280;70472;47.592;17.640;2023-12-22T01:05:53;97678.97;;;5.96;99.06
81005;BME280;70472;47.592;17.640;2023-12-22T01:06:26;97685.13;;;5.97;99.37
81005;BME280;70472;47.592;17.640;2023-12-22T01:06:59;97697.00;;;5.94;99.13
81005;BME280;70472;47.592;17.640;2023-12-22T01:07:31;97704.19;;;6.00;99.20
81005;BME280;70472;47.592;17.640;2023-12-22T01:08:04;97706.84;;;6.00;98.89
81005;BME280;70472;47.592;17.640;2023-12-22T01:08:37;97712.31;;;5.92;99.39
81005;BME280;70472;47.592;17.640;2023-12-22T01:09:10;97718.44;;;5.93;98.74
81005;BME280;70472;47.592;17.640;2023-12-22T01:09:42;97711.72;;;5.97;99.20
81005;BME280;70472;47.592;17.640;2023-12-22T01:10:15;97720.97;;;6.01;98.94
81005;BME280;70472;47.592;17.640;2023-12-22T01:10:47;97724.34;;;5.88;99.02
81005;BME280;70472;47.592;17.640;2023-12-22T01:11:19;97718.22;;;5.87;98.25
81005;BME280;70472;47.592;17.640;2023-12-22T01:11:52;97717.25;;;5.95;98.80
81005;BME280;70472;47.592;17.640;2023-12-22T01:12:24;97730.13;;;5.92;98.89
81005;BME280;70472;47.592;17.640;2023-12-22T01:12:56;97726.44;;;5.93;98.41
81005;BME280;70472;47.592;17.640;2023-12-22T01:13:28;97735.06;;;5.95;98.55
81005;BME280;70472;47.592;17.640;2023-12-22T01:14:01;97738.13;;;5.98;98.58
81005;BME280;70472;47.592;17.640;2023-12-22T01:14:34;97732.63;;;6.00;98.74
81005;BME280;70472;47.592;17.640;2023-12-22T01:15:06;97739.09;;;5.90;98.92
81005;BME280;70472;47.592;17.640;2023-12-22T01:15:39;97733.53;;;5.85;97.77
81005;BME280;70472;47.592;17.640;2023-12-22T01:16:11;97744.06;;;5.94;98.25
81005;BME280;70472;47.592;17.640;2023-12-22T01:16:44;97741.75;;;5.90;97.43
81005;BME280;70472;47.592;17.640;2023-12-22T01:17:16;97750.13;;;5.87;97.42
81005;BME280;70472;47.592;17.640;2023-12-22T01:17:48;97740.38;;;5.95;97.56
81005;BME280;70472;47.592;17.640;2023-12-22T01:18:21;97716.22;;;5.96;97.39
81005;BME280;70472;47.592;17.640;2023-12-22T01:18:53;97703.94;;;5.95;96.22
81005;BME280;70472;47.592;17.640;2023-12-22T01:19:25;97708.38;;;5.88;96.07
81005;BME280;70472;47.592;17.640;2023-12-22T01:19:58;97724.78;;;5.92;95.78
81005;BME280;70472;47.592;17.640;2023-12-22T01:20:30;97737.94;;;5.93;96.01
81005;BME280;70472;47.592;17.640;2023-12-22T01:21:03;97743.66;;;5.97;96.53
81005;BME280;70472;47.592;17.640;2023-12-22T01:21:35;97737.06;;;5.93;96.60
81005;BME280;70472;47.592;17.640;2023-12-22T01:22:07;97740.94;;;5.90;96.37
81005;BME280;70472;47.592;17.640;2023-12-22T01:22:40;97748.56;;;5.93;96.06
81005;BME280;70472;47.592;17.640;2023-12-22T01:23:12;97752.47;;;5.97;95.65
81005;BME280;70472;47.592;17.640;2023-12-22T01:23:44;97746.13;;;5.98;95.66
81005;BME280;70472;47.592;17.640;2023-12-22T01:24:17;97744.47;;;5.97;96.16
81005;BME280;70472;47.592;17.640;2023-12-22T01:24:49;97748.97;;;5.97;96.28
81005;BME280;70472;47.592;17.640;2023-12-22T01:25:21;97748.38;;;5.95;96.50
81005;BME280;70472;47.592;17.640;2023-12-22T01:25:54;97740.13;;;5.89;96.75
81005;BME280;70472;47.592;17.640;2023-12-22T01:26:26;97740.75;;;5.92;96.97
81005;BME280;70472;47.592;17.640;2023-12-22T01:26:58;97737.66;;;5.88;96.24
81005;BME280;70472;47.592;17.640;2023-12-22T01:27:31;97723.59;;;5.94;96.65
81005;BME280;70472;47.592;17.640;2023-12-22T01:28:04;97727.91;;;5.95;96.72
81005;BME280;70472;47.592;17.640;2023-12-22T01:28:36;97716.53;;;5.86;96.55
81005;BME280;70472;47.592;17.640;2023-12-22T01:29:09;97715.16;;;5.90;95.95
81005;BME280;70472;47.592;17.640;2023-12-22T01:29:41;97705.53;;;5.89;95.66
81005;BME280;70472;47.592;17.640;2023-12-22T01:30:14;97700.59;;;5.86;96.67
81005;BME280;70472;47.592;17.640;2023-12-22T01:30:46;97690.78;;;5.87;96.69
81005;BME280;70472;47.592;17.640;2023-12-22T01:31:18;97698.19;;;5.92;96.75
81005;BME280;70472;47.592;17.640;2023-12-22T01:31:51;97693.50;;;5.94;96.77
81005;BME280;70472;47.592;17.640;2023-12-22T01:32:23;97707.63;;;5.94;96.52
81005;BME280;70472;47.592;17.640;2023-12-22T01:32:55;97700.19;;;5.89;96.67
81005;BME280;70472;47.592;17.640;2023-12-22T01:33:27;97698.84;;;5.94;96.51
81005;BME280;70472;47.592;17.640;2023-12-22T01:34:00;97685.53;;;5.94;96.87
81005;BME280;70472;47.592;17.640;2023-12-22T01:34:32;97684.09;;;5.98;95.22
81005;BME280;70472;47.592;17.640;2023-12-22T01:35:05;97678.09;;;5.89;94.96
81005;BME280;70472;47.592;17.640;2023-12-22T01:35:37;97673.22;;;5.93;94.86
81005;BME280;70472;47.592;17.640;2023-12-22T01:36:10;97680.16;;;5.87;95.83
81005;BME280;70472;47.592;17.640;2023-12-22T01:36:42;97680.97;;;5.87;95.28
81005;BME280;70472;47.592;17.640;2023-12-22T01:37:14;97664.56;;;5.84;94.84
81005;BME280;70472;47.592;17.640;2023-12-22T01:37:47;97647.38;;;5.86;95.66
81005;BME280;70472;47.592;17.640;2023-12-22T01:38:19;97637.16;;;5.90;94.89
81005;BME280;70472;47.592;17.640;2023-12-22T01:38:51;97627.75;;;5.87;94.46
81005;BME280;70472;47.592;17.640;2023-12-22T01:39:24;97622.44;;;5.87;94.72
81005;BME280;70472;47.592;17.640;2023-12-22T01:39:56;97620.59;;;5.88;93.88
81005;BME280;70472;47.592;17.640;2023-12-22T01:40:28;97620.38;;;5.89;93.20
81005;BME280;70472;47.592;17.640;2023-12-22T01:41:00;97619.78;;;5.87;93.21
81005;BME280;70472;47.592;17.640;2023-12-22T01:41:33;97618.94;;;5.87;93.13
81005;BME280;70472;47.592;17.640;2023-12-22T01:42:05;97610.13;;;5.86;93.31
81005;BME280;70472;47.592;17.640;2023-12-22T01:42:37;97619.53;;;5.82;93.35
81005;BME280;70472;47.592;17.640;2023-12-22T01:43:10;97612.59;;;5.81;94.58
81005;BME280;70472;47.592;17.640;2023-12-22T01:43:42;97616.25;;;5.80;94.80
81005;BME280;70472;47.592;17.640;2023-12-22T01:44:14;97614.00;;;5.77;94.49
81005;BME280;70472;47.592;17.640;2023-12-22T01:44:47;97623.22;;;5.81;94.79
81005;BME280;70472;47.592;17.640;2023-12-22T01:45:19;97626.25;;;5.78;95.01
81005;BME280;70472;47.592;17.640;2023-12-22T01:45:56;97622.78;;;5.78;95.30
81005;BME280;70472;47.592;17.640;2023-12-22T01:46:29;97620.75;;;5.80;95.72
81005;BME280;70472;47.592;17.640;2023-12-22T01:47:02;97616.03;;;5.75;95.15
81005;BME280;70472;47.592;17.640;2023-12-22T01:47:35;97613.13;;;5.70;94.90
81005;BME280;70472;47.592;17.640;2023-12-22T01:48:08;97612.72;;;5.73;93.57
81005;BME280;70472;47.592;17.640;2023-12-22T01:48:41;97601.47;;;5.71;94.33
81005;BME280;70472;47.592;17.640;2023-12-22T01:49:15;97614.56;;;5.73;93.70
81005;BME280;70472;47.592;17.640;2023-12-22T01:49:48;97617.81;;;5.68;93.85
81005;BME280;70472;47.592;17.640;2023-12-22T01:50:20;97607.81;;;5.70;92.04
81005;BME280;70472;47.592;17.640;2023-12-22T01:50:55;97598.22;;;5.76;92.82
81005;BME280;70472;47.592;17.640;2023-12-22T01:51:29;97591.06;;;5.76;92.09
81005;BME280;70472;47.592;17.640;2023-12-22T01:52:04;97603.13;;;5.72;93.62
81005;BME280;70472;47.592;17.640;2023-12-22T01:52:38;97603.91;;;5.66;93.90
81005;BME280;70472;47.592;17.640;2023-12-22T01:53:11;97590.38;;;5.61;93.55
81005;BME280;70472;47.592;17.640;2023-12-22T01:53:45;97587.94;;;5.66;92.73
81005;BME280;70472;47.592;17.640;2023-12-22T01:54:18;97585.91;;;5.68;92.75
81005;BME280;70472;47.592;17.640;2023-12-22T01:54:51;97588.31;;;5.63;92.34
81005;BME280;70472;47.592;17.640;2023-12-22T01:55:24;97582.59;;;5.59;92.37
81005;BME280;70472;47.592;17.640;2023-12-22T01:55:57;97589.34;;;5.62;91.67
81005;BME280;70472;47.592;17.640;2023-12-22T01:56:30;97593.63;;;5.56;91.66
81005;BME280;70472;47.592;17.640;2023-12-22T01:57:03;97589.31;;;5.55;92.27
81005;BME280;70472;47.592;17.640;2023-12-22T01:57:36;97584.00;;;5.55;92.21
81005;BME280;70472;47.592;17.640;2023-12-22T01:58:10;97582.94;;;5.50;92.43
81005;BME280;70472;47.592;17.640;2023-12-22T01:58:43;97589.09;;;5.50;92.58
81005;BME280;70472;47.592;17.640;2023-12-22T01:59:23;97595.00;;;5.46;92.84
81005;BME280;70472;47.592;17.640;2023-12-22T01:59:56;97595.19;;;5.44;92.29
81005;BME280;70472;47.592;17.640;2023-12-22T02:00:29;97601.72;;;5.42;92.95
81005;BME280;70472;47.592;17.640;2023-12-22T02:01:03;97601.13;;;5.40;92.20
81005;BME280;70472;47.592;17.640;2023-12-22T02:01:36;97600.50;;;5.44;92.07
81005;BME280;70472;47.592;17.640;2023-12-22T02:02:08;97610.28;;;5.37;92.51
81005;BME280;70472;47.592;17.640;2023-12-22T02:02:41;97606.16;;;5.28;92.64
81005;BME280;70472;47.592;17.640;2023-12-22T02:03:14;97616.78;;;5.28;92.43
81005;BME280;70472;47.592;17.640;2023-12-22T02:03:49;97621.66;;;5.24;93.16
81005;BME280;70472;47.592;17.640;2023-12-22T02:04:24;97620.84;;;5.24;93.59
81005;BME280;70472;47.592;17.640;2023-12-22T02:05:00;97620.22;;;5.22;93.95
81005;BME280;70472;47.592;17.640;2023-12-22T02:05:32;97602.97;;;5.11;93.99
81005;BME280;70472;47.592;17.640;2023-12-22T02:06:05;97615.00;;;5.07;93.76
81005;BME280;70472;47.592;17.640;2023-12-22T02:06:38;97610.50;;;5.07;94.12
81005;BME280;70472;47.592;17.640;2023-12-22T02:07:11;97602.31;;;5.09;94.36
81005;BME280;70472;47.592;17.640;2023-12-22T02:07:44;97591.94;;;5.14;93.16
81005;BME280;70472;47.592;17.640;2023-12-22T02:08:18;97596.00;;;5.10;92.68
81005;BME280;70472;47.592;17.640;2023-12-22T02:08:51;97608.44;;;5.09;93.10
81005;BME280;70472;47.592;17.640;2023-12-22T02:09:23;97602.97;;;5.11;93.55
81005;BME280;70472;47.592;17.640;2023-12-22T02:09:56;97606.84;;;5.15;92.89
81005;BME280;70472;47.592;17.640;2023-12-22T02:10:28;97612.00;;;5.17;92.85
81005;BME280;70472;47.592;17.640;2023-12-22T02:11:01;97624.47;;;5.16;93.75
81005;BME280;70472;47.592;17.640;2023-12-22T02:11:37;97619.06;;;5.09;93.56
81005;BME280;70472;47.592;17.640;2023-12-22T02:12:09;97628.88;;;5.09;92.96
81005;BME280;70472;47.592;17.640;2023-12-22T02:12:42;97628.50;;;5.12;93.59
81005;BME280;70472;47.592;17.640;2023-12-22T02:13:15;97629.72;;;5.09;93.17
81005;BME280;70472;47.592;17.640;2023-12-22T02:13:47;97621.56;;;5.11;93.29
81005;BME280;70472;47.592;17.640;2023-12-22T02:14:20;97622.81;;;5.15;92.57
81005;BME280;70472;47.592;17.640;2023-12-22T02:14:53;97622.63;;;5.17;92.03
81005;BME280;70472;47.592;17.640;2023-12-22T02:15:25;97636.34;;;5.20;92.09
81005;BME280;70472;47.592;17.640;2023-12-22T02:16:06;97642.91;;;5.24;91.97
81005;BME280;70472;47.592;17.640;2023-12-22T02:17:58;97636.97;;;5.22;89.93
81005;BME280;70472;47.592;17.640;2023-12-22T02:18:36;97635.56;;;5.26;90.65
81005;BME280;70472;47.592;17.640;2023-12-22T02:19:41;97625.56;;;5.28;89.34
81005;BME280;70472;47.592;17.640;2023-12-22T02:20:14;97619.00;;;5.24;89.94
81005;BME280;70472;47.592;17.640;2023-12-22T02:20:47;97630.66;;;5.23;91.16
81005;BME280;70472;47.592;17.640;2023-12-22T02:21:20;97615.06;;;5.20;90.47
81005;BME280;70472;47.592;17.640;2023-12-22T02:22:04;97622.88;;;5.22;89.93
81005;BME280;70472;47.592;17.640;2023-12-22T02:22:38;97624.06;;;5.19;90.14
81005;BME280;70472;47.592;17.640;2023-12-22T02:23:10;97620.03;;;5.23;90.27
81005;BME280;70472;47.592;17.640;2023-12-22T02:23:43;97625.53;;;5.22;89.83
81005;BME280;70472;47.592;17.640;2023-12-22T02:24:15;97633.06;;;5.18;90.56
81005;BME280;70472;47.592;17.640;2023-12-22T02:24:47;97631.03;;;5.20;90.35
81005;BME280;70472;47.592;17.640;2023-12-22T02:25:20;97636.34;;;5.20;89.92
81005;BME280;70472;47.592;17.640;2023-12-22T02:26:44;97639.00;;;5.20;89.34
81005;BME280;70472;47.592;17.640;2023-12-22T02:27:04;97612.66;;;5.25;88.65
81005;BME280;70472;47.592;17.640;2023-12-22T02:28:09;97605.31;;;5.27;87.90
81005;BME280;70472;47.592;17.640;2023-12-22T02:28:46;97601.22;;;5.25;88.65
81005;BME280;70472;47.592;17.640;2023-12-22T02:29:19;97614.28;;;5.26;89.26
81005;BME280;70472;47.592;17.640;2023-12-22T02:30:27;97605.94;;;5.29;88.49
81005;BME280;70472;47.592;17.640;2023-12-22T02:31:18;97611.06;;;5.31;88.33
81005;BME280;70472;47.592;17.640;2023-12-22T02:31:56;97600.88;;;5.34;87.77
81005;BME280;70472;47.592;17.640;2023-12-22T02:32:35;97595.31;;;5.29;88.22
81005;BME280;70472;47.592;17.640;2023-12-22T02:33:09;97592.00;;;5.27;89.02
81005;BME280;70472;47.592;17.640;2023-12-22T02:33:42;97588.16;;;5.30;87.19
81005;BME280;70472;47.592;17.640;2023-12-22T02:34:21;97582.84;;;5.30;87.63
81005;BME280;70472;47.592;17.640;2023-12-22T02:34:56;97594.66;;;5.27;87.97
81005;BME280;70472;47.592;17.640;2023-12-22T02:35:33;97624.75;;;5.28;87.82
81005;BME280;70472;47.592;17.640;2023-12-22T02:36:09;97631.72;;;5.29;87.97
81005;BME280;70472;47.592;17.640;2023-12-22T02:36:42;97642.50;;;5.27;86.80
81005;BME280;70472;47.592;17.640;2023-12-22T02:37:18;97651.50;;;5.26;88.06
81005;BME280;70472;47.592;17.640;2023-12-22T02:37:56;97660.91;;;5.22;87.92
81005;BME280;70472;47.592;17.640;2023-12-22T02:38:30;97669.88;;;5.21;87.39
81005;BME280;70472;47.592;17.640;2023-12-22T02:39:04;97677.66;;;5.23;85.94
81005;BME280;70472;47.592;17.640;2023-12-22T02:39:37;97674.56;;;5.19;86.82
81005;BME280;70472;47.592;17.640;2023-12-22T02:40:11;97672.72;;;5.20;87.34
81005;BME280;70472;47.592;17.640;2023-12-22T02:40:44;97680.91;;;5.18;86.83
81005;BME280;70472;47.592;17.640;2023-12-22T02:41:17;97677.22;;;5.19;86.86
81005;BME280;70472;47.592;17.640;2023-12-22T02:41:49;97677.22;;;5.19;87.83
81005;BME280;70472;47.592;17.640;2023-12-22T02:42:22;97678.59;;;5.15;88.15
81005;BME280;70472;47.592;17.640;2023-12-22T02:42:55;97678.59;;;5.15;86.25
81005;BME280;70472;47.592;17.640;2023-12-22T02:43:28;97677.63;;;5.16;86.65
81005;BME280;70472;47.592;17.640;2023-12-22T02:44:01;97677.78;;;5.15;86.69
81005;BME280;70472;47.592;17.640;2023-12-22T02:44:34;97679.25;;;5.17;86.62
81005;BME280;70472;47.592;17.640;2023-12-22T02:45:06;97680.84;;;5.12;88.00
81005;BME280;70472;47.592;17.640;2023-12-22T02:45:44;97671.59;;;5.07;87.21
81005;BME280;70472;47.592;17.640;2023-12-22T02:46:17;97678.38;;;5.10;87.90
81005;BME280;70472;47.592;17.640;2023-12-22T02:46:49;97676.72;;;5.09;87.01
81005;BME280;70472;47.592;17.640;2023-12-22T02:47:22;97679.56;;;5.07;87.63
81005;BME280;70472;47.592;17.640;2023-12-22T02:47:54;97686.53;;;5.08;87.33
81005;BME280;70472;47.592;17.640;2023-12-22T02:48:26;97693.06;;;5.06;87.12
81005;BME280;70472;47.592;17.640;2023-12-22T02:48:59;97688.13;;;5.03;87.06
81005;BME280;70472;47.592;17.640;2023-12-22T02:49:31;97688.31;;;5.01;87.60
81005;BME280;70472;47.592;17.640;2023-12-22T02:50:04;97696.09;;;5.03;87.04
81005;BME280;70472;47.592;17.640;2023-12-22T02:50:37;97705.69;;;5.04;86.85
81005;BME280;70472;47.592;17.640;2023-12-22T02:51:09;97690.97;;;5.01;86.74
81005;BME280;70472;47.592;17.640;2023-12-22T02:51:42;97695.72;;;5.06;85.18
81005;BME280;70472;47.592;17.640;2023-12-22T02:52:14;97704.06;;;5.03;85.89
81005;BME280;70472;47.592;17.640;2023-12-22T02:52:46;97707.38;;;5.05;85.99
81005;BME280;70472;47.592;17.640;2023-12-22T02:53:19;97714.31;;;5.06;86.79
81005;BME280;70472;47.592;17.640;2023-12-22T02:53:51;97730.63;;;5.03;86.52
81005;BME280;70472;47.592;17.640;2023-12-22T02:54:23;97732.25;;;5.04;86.29
81005;BME280;70472;47.592;17.640;2023-12-22T02:54:56;97724.94;;;5.06;86.71
81005;BME280;70472;47.592;17.640;2023-12-22T02:55:28;97732.72;;;5.07;85.75
81005;BME280;70472;47.592;17.640;2023-12-22T02:56:01;97739.06;;;5.06;86.52
81005;BME280;70472;47.592;17.640;2023-12-22T02:56:33;97733.13;;;5.04;87.10
81005;BME280;70472;47.592;17.640;2023-12-22T02:57:09;97737.22;;;5.07;86.18
81005;BME280;70472;47.592;17.640;2023-12-22T02:57:41;97741.31;;;5.09;85.88